sensor_id;sensor_type;location;lat;lon;timestamp;temperature;humidity
27759;DHT22;15148;48.972;12.794;2023-04-25T00:04:22;6.50;99.90
27759;DHT22;15148;48.972;12.794;2023-04-25T00:09:24;6.40;99.90
27759;DHT22;15148;48.972;12.794;2023-04-25T00:14:27;6.60;99.90
27759;DHT22;15148;48.972;12.794;2023-04-25T00:19:29;6.60;99.90
27759;DHT22;15148;48.972;12.794;2023-04-25T00:24:31;6.60;99.90
27759;DHT22;15148;48.972;12.794;2023-04-25T00:29:33;6.60;99.90
27759;DHT22;15148;48.972;12.794;2023-04-25T00:34:35;6.60;99.90
27759;DHT22;15148;48.972;12.794;2023-04-25T00:39:37;6.60;99.90
27759;DHT22;15148;48.972;12.794;2023-04-25T00:44:39;6.50;99.90
27759;DHT22;15148;48.972;12.794;2023-04-25T00:49:41;6.50;99.90
27759;DHT22;15148;48.972;12.794;2023-04-25T00:54:43;6.70;99.90
27759;DHT22;15148;48.972;12.794;2023-04-25T00:59:45;6.70;99.90
27759;DHT22;15148;48.972;12.794;2023-04-25T01:04:48;6.60;99.90
27759;DHT22;15148;48.972;12.794;2023-04-25T01:09:53;6.60;99.90
27759;DHT22;15148;48.972;12.794;2023-04-25T01:14:55;6.60;99.90
27759;DHT22;15148;48.972;12.794;2023-04-25T01:19:57;6.60;99.90
27759;DHT22;15148;48.972;12.794;2023-04-25T01:25:00;6.70;99.90
27759;DHT22;15148;48.972;12.794;2023-04-25T01:30:03;6.70;99.90
27759;DHT22;15148;48.972;12.794;2023-04-25T01:35:08;6.70;99.90
27759;DHT22;15148;48.972;12.794;2023-04-25T01:40:12;6.70;99.90
27759;DHT22;15148;48.972;12.794;2023-04-25T01:45:14;6.60;99.90
27759;DHT22;15148;48.972;12.794;2023-04-25T01:50:19;6.60;99.90
27759;DHT22;15148;48.972;12.794;2023-04-25T01:55:22;6.70;99.90
27759;DHT22;15148;48.972;12.794;2023-04-25T02:00:32;6.70;99.90
27759;DHT22;15148;48.972;12.794;2023-04-25T02:05:35;6.80;99.90
27759;DHT22;15148;48.972;12.794;2023-04-25T02:10:40;6.80;99.90
27759;DHT22;15148;48.972;12.794;2023-04-25T02:16:04;6.90;99.90
27759;DHT22;15148;48.972;12.794;2023-04-25T02:21:06;6.90;99.90
27759;DHT22;15148;48.972;12.794;2023-04-25T02:26:08;6.90;99.90
27759;DHT22;15148;48.972;12.794;2023-04-25T02:31:10;7.00;99.90
27759;DHT22;15148;48.972;12.794;2023-04-25T02:36:12;7.10;99.90
27759;DHT22;15148;48.972;12.794;2023-04-25T02:41:15;7.10;99.90
27759;DHT22;15148;48.972;12.794;2023-04-25T02:46:17;7.10;99.90
27759;DHT22;15148;48.972;12.794;2023-04-25T02:51:34;7.00;99.90
27759;DHT22;15148;48.972;12.794;2023-04-25T02:56:36;7.00;99.90
27759;DHT22;15148;48.972;12.794;2023-04-25T03:01:41;6.90;99.90
27759;DHT22;15148;48.972;12.794;2023-04-25T03:06:43;7.00;99.90
27759;DHT22;15148;48.972;12.794;2023-04-25T03:11:45;6.90;99.90
27759;DHT22;15148;48.972;12.794;2023-04-25T03:16:47;6.90;99.90
27759;DHT22;15148;48.972;12.794;2023-04-25T03:21:51;6.90;99.90
27759;DHT22;15148;48.972;12.794;2023-04-25T03:26:53;6.90;99.90
27759;DHT22;15148;48.972;12.794;2023-04-25T03:31:55;6.90;99.90
27759;DHT22;15148;48.972;12.794;2023-04-25T03:36:57;6.90;99.90
27759;DHT22;15148;48.972;12.794;2023-04-25T03:41:59;6.80;99.90
27759;DHT22;15148;48.972;12.794;2023-04-25T03:47:03;6.80;99.90
27759;DHT22;15148;48.972;12.794;2023-04-25T03:52:05;6.80;99.90
27759;DHT22;15148;48.972;12.794;2023-04-25T03:57:11;6.90;99.90
27759;DHT22;15148;48.972;12.794;2023-04-25T04:02:14;6.90;99.90
27759;DHT22;15148;48.972;12.794;2023-04-25T04:07:16;6.90;99.90
27759;DHT22;15148;48.972;12.794;2023-04-25T04:12:21;6.90;99.90
27759;DHT22;15148;48.972;12.794;2023-04-25T04:17:23;7.00;99.90
27759;DHT22;15148;48.972;12.794;2023-04-25T04:22:26;7.00;99.90
27759;DHT22;15148;48.972;12.794;2023-04-25T04:27:32;7.00;99.90
27759;DHT22;15148;48.972;12.794;2023-04-25T04:32:55;7.00;99.90
27759;DHT22;15148;48.972;12.794;2023-04-25T04:37:57;7.00;99.90
27759;DHT22;15148;48.972;12.794;2023-04-25T04:43:03;7.00;99.90
27759;DHT22;15148;48.972;12.794;2023-04-25T04:48:08;7.10;99.90
27759;DHT22;15148;48.972;12.794;2023-04-25T04:53:30;7.10;99.90
27759;DHT22;15148;48.972;12.794;2023-04-25T04:58:52;7.10;99.90
27759;DHT22;15148;48.972;12.794;2023-04-25T05:04:17;7.20;99.90
27759;DHT22;15148;48.972;12.794;2023-04-25T05:09:22;7.20;99.90
27759;DHT22;15148;48.972;12.794;2023-04-25T05:14:41;7.20;99.90
27759;DHT22;15148;48.972;12.794;2023-04-25T05:20:11;7.20;99.90
27759;DHT22;15148;48.972;12.794;2023-04-25T05:25:31;7.60;99.90
27759;DHT22;15148;48.972;12.794;2023-04-25T05:31:00;8.00;99.90
27759;DHT22;15148;48.972;12.794;2023-04-25T05:36:14;8.50;99.90
27759;DHT22;15148;48.972;12.794;2023-04-25T05:41:16;8.50;99.90
27759;DHT22;15148;48.972;12.794;2023-04-25T05:46:38;8.30;99.90
27759;DHT22;15148;48.972;12.794;2023-04-25T05:51:52;8.20;99.90
27759;DHT22;15148;48.972;12.794;2023-04-25T05:57:06;8.00;99.90
27759;DHT22;15148;48.972;12.794;2023-04-25T06:02:08;7.90;99.90
27759;DHT22;15148;48.972;12.794;2023-04-25T06:07:12;7.80;99.90
27759;DHT22;15148;48.972;12.794;2023-04-25T06:12:15;7.90;99.90
27759;DHT22;15148;48.972;12.794;2023-04-25T06:17:17;8.10;99.90
27759;DHT22;15148;48.972;12.794;2023-04-25T06:22:19;8.10;99.90
27759;DHT22;15148;48.972;12.794;2023-04-25T06:27:20;8.10;99.90
27759;DHT22;15148;48.972;12.794;2023-04-25T06:32:22;8.00;99.90
27759;DHT22;15148;48.972;12.794;2023-04-25T06:37:24;8.00;99.90
27759;DHT22;15148;48.972;12.794;2023-04-25T06:42:26;8.20;99.90
27759;DHT22;15148;48.972;12.794;2023-04-25T06:47:33;8.40;99.90
27759;DHT22;15148;48.972;12.794;2023-04-25T06:52:36;8.50;99.90
27759;DHT22;15148;48.972;12.794;2023-04-25T06:57:38;8.50;99.90
27759;DHT22;15148;48.972;12.794;2023-04-25T07:03:09;8.60;99.90
27759;DHT22;15148;48.972;12.794;2023-04-25T07:08:11;8.30;99.90
27759;DHT22;15148;48.972;12.794;2023-04-25T07:13:13;8.30;99.90
27759;DHT22;15148;48.972;12.794;2023-04-25T07:18:16;8.30;99.90
27759;DHT22;15148;48.972;12.794;2023-04-25T07:23:18;8.40;99.90
27759;DHT22;15148;48.972;12.794;2023-04-25T07:28:21;8.60;99.90
27759;DHT22;15148;48.972;12.794;2023-04-25T07:33:23;9.20;99.90
27759;DHT22;15148;48.972;12.794;2023-04-25T07:38:24;9.30;99.90
27759;DHT22;15148;48.972;12.794;2023-04-25T07:43:26;9.20;99.90
27759;DHT22;15148;48.972;12.794;2023-04-25T07:48:32;9.10;99.90
27759;DHT22;15148;48.972;12.794;2023-04-25T07:58:44;9.60;99.90
27759;DHT22;15148;48.972;12.794;2023-04-25T08:03:48;9.80;99.90
27759;DHT22;15148;48.972;12.794;2023-04-25T08:08:58;10.10;99.90
27759;DHT22;15148;48.972;12.794;2023-04-25T08:14:07;10.30;99.90
27759;DHT22;15148;48.972;12.794;2023-04-25T08:19:11;10.50;99.90
27759;DHT22;15148;48.972;12.794;2023-04-25T08:24:13;11.00;99.90
27759;DHT22;15148;48.972;12.794;2023-04-25T08:29:15;11.30;99.90
27759;DHT22;15148;48.972;12.794;2023-04-25T08:34:18;10.80;99.90
27759;DHT22;15148;48.972;12.794;2023-04-25T08:39:23;10.40;99.90
27759;DHT22;15148;48.972;12.794;2023-04-25T08:44:45;10.40;99.90
27759;DHT22;15148;48.972;12.794;2023-04-25T08:49:53;10.70;99.90
27759;DHT22;15148;48.972;12.794;2023-04-25T08:54:57;10.60;99.90
27759;DHT22;15148;48.972;12.794;2023-04-25T09:00:01;10.80;99.90
27759;DHT22;15148;48.972;12.794;2023-04-25T09:05:09;11.10;99.90
27759;DHT22;15148;48.972;12.794;2023-04-25T09:10:11;11.00;99.90
27759;DHT22;15148;48.972;12.794;2023-04-25T09:15:13;10.40;99.90
27759;DHT22;15148;48.972;12.794;2023-04-25T09:26:15;9.70;99.90
27759;DHT22;15148;48.972;12.794;2023-04-25T09:31:23;9.50;99.90
27759;DHT22;15148;48.972;12.794;2023-04-25T09:36:30;9.50;99.90
27759;DHT22;15148;48.972;12.794;2023-04-25T09:41:53;9.70;99.90
27759;DHT22;15148;48.972;12.794;2023-04-25T09:46:56;10.60;99.90
27759;DHT22;15148;48.972;12.794;2023-04-25T09:52:00;11.30;99.90
27759;DHT22;15148;48.972;12.794;2023-04-25T09:57:20;11.30;99.90
27759;DHT22;15148;48.972;12.794;2023-04-25T10:02:25;10.40;99.90
27759;DHT22;15148;48.972;12.794;2023-04-25T10:07:31;9.80;99.90
27759;DHT22;15148;48.972;12.794;2023-04-25T10:12:36;9.90;99.90
27759;DHT22;15148;48.972;12.794;2023-04-25T10:17:38;10.50;99.90
27759;DHT22;15148;48.972;12.794;2023-04-25T10:22:45;10.90;99.90
27759;DHT22;15148;48.972;12.794;2023-04-25T10:27:51;10.90;99.90
27759;DHT22;15148;48.972;12.794;2023-04-25T10:32:54;10.60;99.90
27759;DHT22;15148;48.972;12.794;2023-04-25T10:38:00;10.40;99.90
27759;DHT22;15148;48.972;12.794;2023-04-25T10:43:33;10.30;99.90
27759;DHT22;15148;48.972;12.794;2023-04-25T10:48:35;10.10;99.90
27759;DHT22;15148;48.972;12.794;2023-04-25T10:53:37;9.90;99.90
27759;DHT22;15148;48.972;12.794;2023-04-25T10:58:43;9.90;99.90
27759;DHT22;15148;48.972;12.794;2023-04-25T11:03:46;9.80;99.90
27759;DHT22;15148;48.972;12.794;2023-04-25T11:08:52;9.70;99.90
27759;DHT22;15148;48.972;12.794;2023-04-25T11:13:54;10.00;99.90
27759;DHT22;15148;48.972;12.794;2023-04-25T11:18:57;10.20;99.90
27759;DHT22;15148;48.972;12.794;2023-04-25T11:23:59;10.20;99.90
27759;DHT22;15148;48.972;12.794;2023-04-25T11:29:02;10.20;99.90
27759;DHT22;15148;48.972;12.794;2023-04-25T11:34:04;10.40;99.90
27759;DHT22;15148;48.972;12.794;2023-04-25T11:39:06;10.70;99.90
27759;DHT22;15148;48.972;12.794;2023-04-25T11:44:08;11.10;99.90
27759;DHT22;15148;48.972;12.794;2023-04-25T11:49:10;11.60;99.90
27759;DHT22;15148;48.972;12.794;2023-04-25T11:54:13;11.60;99.90
27759;DHT22;15148;48.972;12.794;2023-04-25T11:59:14;11.80;99.90
27759;DHT22;15148;48.972;12.794;2023-04-25T12:09:29;12.10;99.90
27759;DHT22;15148;48.972;12.794;2023-04-25T12:14:34;11.90;99.90
27759;DHT22;15148;48.972;12.794;2023-04-25T12:19:37;11.70;99.90
27759;DHT22;15148;48.972;12.794;2023-04-25T12:24:45;11.90;99.90
27759;DHT22;15148;48.972;12.794;2023-04-25T12:29:54;12.40;99.90
27759;DHT22;15148;48.972;12.794;2023-04-25T12:34:56;12.70;99.90
27759;DHT22;15148;48.972;12.794;2023-04-25T12:39:58;12.20;99.90
27759;DHT22;15148;48.972;12.794;2023-04-25T12:45:00;12.00;99.90
27759;DHT22;15148;48.972;12.794;2023-04-25T12:50:02;12.20;99.90
27759;DHT22;15148;48.972;12.794;2023-04-25T12:55:04;12.40;99.90
27759;DHT22;15148;48.972;12.794;2023-04-25T13:00:06;11.90;99.90
27759;DHT22;15148;48.972;12.794;2023-04-25T13:05:10;11.70;99.90
27759;DHT22;15148;48.972;12.794;2023-04-25T13:10:12;11.60;99.90
27759;DHT22;15148;48.972;12.794;2023-04-25T13:15:14;12.10;99.90
27759;DHT22;15148;48.972;12.794;2023-04-25T13:20:18;12.20;99.90
27759;DHT22;15148;48.972;12.794;2023-04-25T13:25:23;12.40;99.90
27759;DHT22;15148;48.972;12.794;2023-04-25T13:30:25;12.60;99.90
27759;DHT22;15148;48.972;12.794;2023-04-25T13:35:27;12.60;99.90
27759;DHT22;15148;48.972;12.794;2023-04-25T13:40:29;12.40;99.90
27759;DHT22;15148;48.972;12.794;2023-04-25T13:45:31;12.10;99.90
27759;DHT22;15148;48.972;12.794;2023-04-25T13:50:34;11.70;99.90
27759;DHT22;15148;48.972;12.794;2023-04-25T13:55:36;11.30;99.90
27759;DHT22;15148;48.972;12.794;2023-04-25T14:00:40;11.50;99.90
27759;DHT22;15148;48.972;12.794;2023-04-25T14:05:44;11.90;99.90
27759;DHT22;15148;48.972;12.794;2023-04-25T14:10:46;11.80;99.90
27759;DHT22;15148;48.972;12.794;2023-04-25T14:15:48;11.60;99.90
27759;DHT22;15148;48.972;12.794;2023-04-25T14:20:51;11.50;99.90
27759;DHT22;15148;48.972;12.794;2023-04-25T14:25:53;11.30;99.90
27759;DHT22;15148;48.972;12.794;2023-04-25T14:30:55;11.10;99.90
27759;DHT22;15148;48.972;12.794;2023-04-25T14:35:57;11.10;99.90
27759;DHT22;15148;48.972;12.794;2023-04-25T14:40:59;11.20;99.90
27759;DHT22;15148;48.972;12.794;2023-04-25T14:46:01;11.20;99.90
27759;DHT22;15148;48.972;12.794;2023-04-25T14:51:04;11.00;99.90
27759;DHT22;15148;48.972;12.794;2023-04-25T14:56:06;10.80;99.90
27759;DHT22;15148;48.972;12.794;2023-04-25T15:01:08;10.70;99.90
27759;DHT22;15148;48.972;12.794;2023-04-25T15:06:11;10.70;99.90
27759;DHT22;15148;48.972;12.794;2023-04-25T15:11:12;10.80;99.90
27759;DHT22;15148;48.972;12.794;2023-04-25T15:16:14;10.80;99.90
27759;DHT22;15148;48.972;12.794;2023-04-25T15:21:16;11.00;99.90
27759;DHT22;15148;48.972;12.794;2023-04-25T15:26:18;11.10;99.90
27759;DHT22;15148;48.972;12.794;2023-04-25T15:31:21;11.10;99.90
27759;DHT22;15148;48.972;12.794;2023-04-25T15:36:23;11.00;99.90
27759;DHT22;15148;48.972;12.794;2023-04-25T15:41:25;11.00;99.90
27759;DHT22;15148;48.972;12.794;2023-04-25T15:46:27;11.10;99.90
27759;DHT22;15148;48.972;12.794;2023-04-25T15:51:31;11.10;99.90
27759;DHT22;15148;48.972;12.794;2023-04-25T15:56:34;11.10;99.90
27759;DHT22;15148;48.972;12.794;2023-04-25T16:01:36;10.90;99.90
27759;DHT22;15148;48.972;12.794;2023-04-25T16:06:38;11.00;99.90
27759;DHT22;15148;48.972;12.794;2023-04-25T16:11:40;10.90;99.90
27759;DHT22;15148;48.972;12.794;2023-04-25T16:16:42;10.90;99.90
27759;DHT22;15148;48.972;12.794;2023-04-25T16:21:45;10.90;99.90
27759;DHT22;15148;48.972;12.794;2023-04-25T16:26:47;10.90;99.90
27759;DHT22;15148;48.972;12.794;2023-04-25T16:31:49;10.80;99.90
27759;DHT22;15148;48.972;12.794;2023-04-25T16:36:54;10.70;99.90
27759;DHT22;15148;48.972;12.794;2023-04-25T16:41:57;10.60;99.90
27759;DHT22;15148;48.972;12.794;2023-04-25T16:46:59;10.50;99.90
27759;DHT22;15148;48.972;12.794;2023-04-25T16:52:01;10.50;99.90
27759;DHT22;15148;48.972;12.794;2023-04-25T16:57:03;10.40;99.90
27759;DHT22;15148;48.972;12.794;2023-04-25T17:02:10;10.30;99.90
27759;DHT22;15148;48.972;12.794;2023-04-25T17:07:13;10.20;99.90
27759;DHT22;15148;48.972;12.794;2023-04-25T17:12:16;10.10;99.90
27759;DHT22;15148;48.972;12.794;2023-04-25T17:17:20;10.00;99.90
27759;DHT22;15148;48.972;12.794;2023-04-25T17:22:23;9.90;99.90
27759;DHT22;15148;48.972;12.794;2023-04-25T17:27:25;9.80;99.90
27759;DHT22;15148;48.972;12.794;2023-04-25T17:32:27;9.60;99.90
27759;DHT22;15148;48.972;12.794;2023-04-25T17:37:29;9.60;99.90
27759;DHT22;15148;48.972;12.794;2023-04-25T17:42:31;9.50;99.90
27759;DHT22;15148;48.972;12.794;2023-04-25T17:47:33;9.50;99.90
27759;DHT22;15148;48.972;12.794;2023-04-25T17:52:35;9.40;99.90
27759;DHT22;15148;48.972;12.794;2023-04-25T17:57:39;9.30;99.90
27759;DHT22;15148;48.972;12.794;2023-04-25T18:02:40;9.20;99.90
27759;DHT22;15148;48.972;12.794;2023-04-25T18:07:42;9.30;99.90
27759;DHT22;15148;48.972;12.794;2023-04-25T18:12:44;9.20;99.90
27759;DHT22;15148;48.972;12.794;2023-04-25T18:17:46;9.10;99.90
27759;DHT22;15148;48.972;12.794;2023-04-25T18:22:48;9.00;99.90
27759;DHT22;15148;48.972;12.794;2023-04-25T18:27:51;9.00;99.90
27759;DHT22;15148;48.972;12.794;2023-04-25T18:32:54;9.00;99.90
27759;DHT22;15148;48.972;12.794;2023-04-25T18:37:56;8.90;99.90
27759;DHT22;15148;48.972;12.794;2023-04-25T18:42:58;8.80;99.90
27759;DHT22;15148;48.972;12.794;2023-04-25T18:48:00;8.70;99.90
27759;DHT22;15148;48.972;12.794;2023-04-25T18:53:03;8.70;99.90
27759;DHT22;15148;48.972;12.794;2023-04-25T18:58:05;8.70;99.90
27759;DHT22;15148;48.972;12.794;2023-04-25T19:03:08;8.60;99.90
27759;DHT22;15148;48.972;12.794;2023-04-25T19:08:10;8.60;99.90
27759;DHT22;15148;48.972;12.794;2023-04-25T19:13:12;8.50;99.90
27759;DHT22;15148;48.972;12.794;2023-04-25T19:18:14;8.50;99.90
27759;DHT22;15148;48.972;12.794;2023-04-25T19:23:16;8.40;99.90
27759;DHT22;15148;48.972;12.794;2023-04-25T19:28:18;8.40;99.90
27759;DHT22;15148;48.972;12.794;2023-04-25T19:33:20;8.30;99.90
27759;DHT22;15148;48.972;12.794;2023-04-25T19:38:22;8.20;99.90
27759;DHT22;15148;48.972;12.794;2023-04-25T19:43:24;8.00;99.90
27759;DHT22;15148;48.972;12.794;2023-04-25T19:48:25;7.90;99.90
27759;DHT22;15148;48.972;12.794;2023-04-25T19:53:28;7.80;99.90
27759;DHT22;15148;48.972;12.794;2023-04-25T19:58:30;7.60;99.90
27759;DHT22;15148;48.972;12.794;2023-04-25T20:03:32;7.40;99.90
27759;DHT22;15148;48.972;12.794;2023-04-25T20:08:34;7.30;99.90
27759;DHT22;15148;48.972;12.794;2023-04-25T20:13:36;7.40;99.90
27759;DHT22;15148;48.972;12.794;2023-04-25T20:18:38;7.50;99.90
27759;DHT22;15148;48.972;12.794;2023-04-25T20:23:40;7.60;99.90
27759;DHT22;15148;48.972;12.794;2023-04-25T20:28:44;7.50;99.90
27759;DHT22;15148;48.972;12.794;2023-04-25T20:33:46;7.50;99.90
27759;DHT22;15148;48.972;12.794;2023-04-25T20:38:48;7.40;99.90
27759;DHT22;15148;48.972;12.794;2023-04-25T20:43:51;7.40;99.90
27759;DHT22;15148;48.972;12.794;2023-04-25T20:48:53;7.20;99.90
27759;DHT22;15148;48.972;12.794;2023-04-25T20:53:55;7.10;99.90
27759;DHT22;15148;48.972;12.794;2023-04-25T20:58:57;6.90;99.90
27759;DHT22;15148;48.972;12.794;2023-04-25T21:03:59;6.60;99.90
27759;DHT22;15148;48.972;12.794;2023-04-25T21:09:01;6.50;99.90
27759;DHT22;15148;48.972;12.794;2023-04-25T21:14:05;6.30;99.90
27759;DHT22;15148;48.972;12.794;2023-04-25T21:19:07;6.30;99.90
27759;DHT22;15148;48.972;12.794;2023-04-25T21:24:12;6.20;99.90
27759;DHT22;15148;48.972;12.794;2023-04-25T21:29:14;5.90;99.90
27759;DHT22;15148;48.972;12.794;2023-04-25T21:34:17;5.80;99.90
27759;DHT22;15148;48.972;12.794;2023-04-25T21:39:18;5.90;99.90
27759;DHT22;15148;48.972;12.794;2023-04-25T21:44:20;5.50;99.90
27759;DHT22;15148;48.972;12.794;2023-04-25T21:49:22;5.50;99.90
27759;DHT22;15148;48.972;12.794;2023-04-25T21:54:29;5.50;99.90
27759;DHT22;15148;48.972;12.794;2023-04-25T21:59:31;5.60;99.90
27759;DHT22;15148;48.972;12.794;2023-04-25T22:04:33;5.60;99.90
27759;DHT22;15148;48.972;12.794;2023-04-25T22:09:35;5.70;99.90
27759;DHT22;15148;48.972;12.794;2023-04-25T22:14:52;5.90;99.90
27759;DHT22;15148;48.972;12.794;2023-04-25T22:19:54;5.80;99.90
27759;DHT22;15148;48.972;12.794;2023-04-25T22:24:56;6.00;99.90
27759;DHT22;15148;48.972;12.794;2023-04-25T22:29:57;6.00;99.90
27759;DHT22;15148;48.972;12.794;2023-04-25T22:34:59;6.10;99.90
27759;DHT22;15148;48.972;12.794;2023-04-25T22:40:03;6.20;99.90
27759;DHT22;15148;48.972;12.794;2023-04-25T22:45:08;6.20;99.90
27759;DHT22;15148;48.972;12.794;2023-04-25T22:50:11;6.20;99.90
27759;DHT22;15148;48.972;12.794;2023-04-25T22:55:14;6.20;99.90
27759;DHT22;15148;48.972;12.794;2023-04-25T23:00:16;6.20;99.90
27759;DHT22;15148;48.972;12.794;2023-04-25T23:05:22;6.30;99.90
27759;DHT22;15148;48.972;12.794;2023-04-25T23:10:26;6.20;99.90
27759;DHT22;15148;48.972;12.794;2023-04-25T23:15:28;6.20;99.90
27759;DHT22;15148;48.972;12.794;2023-04-25T23:20:33;6.20;99.90
27759;DHT22;15148;48.972;12.794;2023-04-25T23:25:38;6.20;99.90
27759;DHT22;15148;48.972;12.794;2023-04-25T23:30:40;6.30;99.90
27759;DHT22;15148;48.972;12.794;2023-04-25T23:35:42;6.10;99.90
27759;DHT22;15148;48.972;12.794;2023-04-25T23:40:44;6.10;99.90
27759;DHT22;15148;48.972;12.794;2023-04-25T23:45:46;6.10;99.90
27759;DHT22;15148;48.972;12.794;2023-04-25T23:50:48;6.00;99.90
27759;DHT22;15148;48.972;12.794;2023-04-25T23:55:50;6.00;99.90
